sensor_id;sensor_type;location;lat;lon;timestamp;temperature;humidity
33699;DHT22;20032;52.436;13.312;2023-07-20T00:01:13;17.70;99.90
33699;DHT22;20032;52.436;13.312;2023-07-20T00:03:39;17.60;99.90
33699;DHT22;20032;52.436;13.312;2023-07-20T00:06:04;17.70;99.90
33699;DHT22;20032;52.436;13.312;2023-07-20T00:08:30;17.60;99.90
33699;DHT22;20032;52.436;13.312;2023-07-20T00:10:56;17.60;99.90
33699;DHT22;20032;52.436;13.312;2023-07-20T00:13:21;17.50;99.90
33699;DHT22;20032;52.436;13.312;2023-07-20T00:15:47;17.40;99.90
33699;DHT22;20032;52.436;13.312;2023-07-20T00:18:12;17.50;99.90
33699;DHT22;20032;52.436;13.312;2023-07-20T00:20:38;17.60;99.90
33699;DHT22;20032;52.436;13.312;2023-07-20T00:23:04;17.60;99.90
33699;DHT22;20032;52.436;13.312;2023-07-20T00:25:30;17.60;99.90
33699;DHT22;20032;52.436;13.312;2023-07-20T00:27:55;17.60;99.90
33699;DHT22;20032;52.436;13.312;2023-07-20T00:30:21;17.60;99.90
33699;DHT22;20032;52.436;13.312;2023-07-20T00:32:46;17.60;99.90
33699;DHT22;20032;52.436;13.312;2023-07-20T00:35:13;17.60;99.90
33699;DHT22;20032;52.436;13.312;2023-07-20T00:37:39;17.60;99.90
33699;DHT22;20032;52.436;13.312;2023-07-20T00:40:06;17.50;99.90
33699;DHT22;20032;52.436;13.312;2023-07-20T00:42:32;17.50;99.90
33699;DHT22;20032;52.436;13.312;2023-07-20T00:44:58;17.40;99.90
33699;DHT22;20032;52.436;13.312;2023-07-20T00:47:23;17.40;99.90
33699;DHT22;20032;52.436;13.312;2023-07-20T00:49:50;17.50;99.90
33699;DHT22;20032;52.436;13.312;2023-07-20T00:52:16;17.40;99.90
33699;DHT22;20032;52.436;13.312;2023-07-20T00:54:41;17.50;99.90
33699;DHT22;20032;52.436;13.312;2023-07-20T00:57:07;17.50;99.90
33699;DHT22;20032;52.436;13.312;2023-07-20T00:59:34;17.40;99.90
33699;DHT22;20032;52.436;13.312;2023-07-20T01:01:59;17.30;99.90
33699;DHT22;20032;52.436;13.312;2023-07-20T01:04:26;17.30;99.90
33699;DHT22;20032;52.436;13.312;2023-07-20T01:07:01;17.30;99.90
33699;DHT22;20032;52.436;13.312;2023-07-20T01:10:21;17.30;99.90
33699;DHT22;20032;52.436;13.312;2023-07-20T01:12:42;17.40;99.90
33699;DHT22;20032;52.436;13.312;2023-07-20T01:15:08;17.30;99.90
33699;DHT22;20032;52.436;13.312;2023-07-20T01:17:34;17.30;99.90
33699;DHT22;20032;52.436;13.312;2023-07-20T01:20:00;17.30;99.90
33699;DHT22;20032;52.436;13.312;2023-07-20T01:22:48;17.40;99.90
33699;DHT22;20032;52.436;13.312;2023-07-20T01:25:30;17.30;99.90
33699;DHT22;20032;52.436;13.312;2023-07-20T01:33:26;17.20;99.90
33699;DHT22;20032;52.436;13.312;2023-07-20T01:35:56;17.10;99.90
33699;DHT22;20032;52.436;13.312;2023-07-20T01:38:24;17.20;99.90
33699;DHT22;20032;52.436;13.312;2023-07-20T01:40:50;17.30;99.90
33699;DHT22;20032;52.436;13.312;2023-07-20T01:43:16;17.20;99.90
33699;DHT22;20032;52.436;13.312;2023-07-20T01:45:41;17.30;99.90
33699;DHT22;20032;52.436;13.312;2023-07-20T01:48:07;17.20;99.90
33699;DHT22;20032;52.436;13.312;2023-07-20T01:50:32;17.20;99.90
33699;DHT22;20032;52.436;13.312;2023-07-20T01:53:00;17.10;99.90
33699;DHT22;20032;52.436;13.312;2023-07-20T01:55:25;17.10;99.90
33699;DHT22;20032;52.436;13.312;2023-07-20T01:57:51;17.00;99.90
33699;DHT22;20032;52.436;13.312;2023-07-20T02:00:17;17.00;99.90
33699;DHT22;20032;52.436;13.312;2023-07-20T02:02:44;17.10;99.90
33699;DHT22;20032;52.436;13.312;2023-07-20T02:05:10;17.10;99.90
33699;DHT22;20032;52.436;13.312;2023-07-20T02:07:35;17.10;99.90
33699;DHT22;20032;52.436;13.312;2023-07-20T02:10:00;17.00;99.90
33699;DHT22;20032;52.436;13.312;2023-07-20T02:12:26;16.90;99.90
33699;DHT22;20032;52.436;13.312;2023-07-20T02:14:51;16.90;99.90
33699;DHT22;20032;52.436;13.312;2023-07-20T02:17:18;16.90;99.90
33699;DHT22;20032;52.436;13.312;2023-07-20T02:19:43;16.90;99.90
33699;DHT22;20032;52.436;13.312;2023-07-20T02:22:09;16.70;99.90
33699;DHT22;20032;52.436;13.312;2023-07-20T02:24:34;16.80;99.90
33699;DHT22;20032;52.436;13.312;2023-07-20T02:27:00;16.80;99.90
33699;DHT22;20032;52.436;13.312;2023-07-20T02:29:25;16.70;99.90
33699;DHT22;20032;52.436;13.312;2023-07-20T02:31:51;16.70;99.90
33699;DHT22;20032;52.436;13.312;2023-07-20T02:34:16;16.70;99.90
33699;DHT22;20032;52.436;13.312;2023-07-20T02:36:42;16.70;99.90
33699;DHT22;20032;52.436;13.312;2023-07-20T02:39:08;16.60;99.90
33699;DHT22;20032;52.436;13.312;2023-07-20T02:41:34;16.50;99.90
33699;DHT22;20032;52.436;13.312;2023-07-20T02:44:00;16.50;99.90
33699;DHT22;20032;52.436;13.312;2023-07-20T02:46:26;16.50;99.90
33699;DHT22;20032;52.436;13.312;2023-07-20T02:48:52;16.50;99.90
33699;DHT22;20032;52.436;13.312;2023-07-20T02:51:17;16.50;99.90
33699;DHT22;20032;52.436;13.312;2023-07-20T02:53:43;16.50;99.90
33699;DHT22;20032;52.436;13.312;2023-07-20T02:56:08;16.50;99.90
33699;DHT22;20032;52.436;13.312;2023-07-20T02:58:34;16.50;99.90
33699;DHT22;20032;52.436;13.312;2023-07-20T03:01:04;16.50;99.90
33699;DHT22;20032;52.436;13.312;2023-07-20T03:03:29;16.50;99.90
33699;DHT22;20032;52.436;13.312;2023-07-20T03:05:55;16.60;99.90
33699;DHT22;20032;52.436;13.312;2023-07-20T03:08:21;16.60;99.90
33699;DHT22;20032;52.436;13.312;2023-07-20T03:10:47;16.50;99.90
33699;DHT22;20032;52.436;13.312;2023-07-20T03:13:12;16.50;99.90
33699;DHT22;20032;52.436;13.312;2023-07-20T03:15:39;16.50;99.90
33699;DHT22;20032;52.436;13.312;2023-07-20T03:18:05;16.50;99.90
33699;DHT22;20032;52.436;13.312;2023-07-20T03:20:31;16.50;99.90
33699;DHT22;20032;52.436;13.312;2023-07-20T03:22:56;16.60;99.90
33699;DHT22;20032;52.436;13.312;2023-07-20T03:25:22;16.50;99.90
33699;DHT22;20032;52.436;13.312;2023-07-20T03:27:48;16.50;99.90
33699;DHT22;20032;52.436;13.312;2023-07-20T03:30:13;16.50;99.90
33699;DHT22;20032;52.436;13.312;2023-07-20T03:32:39;16.50;99.90
33699;DHT22;20032;52.436;13.312;2023-07-20T03:35:05;16.50;99.90
33699;DHT22;20032;52.436;13.312;2023-07-20T03:37:30;16.50;99.90
33699;DHT22;20032;52.436;13.312;2023-07-20T03:39:56;16.50;99.90
33699;DHT22;20032;52.436;13.312;2023-07-20T03:42:22;16.60;99.90
33699;DHT22;20032;52.436;13.312;2023-07-20T03:44:48;16.60;99.90
33699;DHT22;20032;52.436;13.312;2023-07-20T03:47:13;16.60;99.90
33699;DHT22;20032;52.436;13.312;2023-07-20T03:49:39;16.60;99.90
33699;DHT22;20032;52.436;13.312;2023-07-20T03:52:04;16.50;99.90
33699;DHT22;20032;52.436;13.312;2023-07-20T03:54:30;16.50;99.90
33699;DHT22;20032;52.436;13.312;2023-07-20T03:56:55;16.60;99.90
33699;DHT22;20032;52.436;13.312;2023-07-20T03:59:21;16.70;99.90
33699;DHT22;20032;52.436;13.312;2023-07-20T04:01:46;16.60;99.90
33699;DHT22;20032;52.436;13.312;2023-07-20T04:04:13;16.60;99.90
33699;DHT22;20032;52.436;13.312;2023-07-20T04:06:38;16.60;99.90
33699;DHT22;20032;52.436;13.312;2023-07-20T04:09:04;16.70;99.90
33699;DHT22;20032;52.436;13.312;2023-07-20T04:11:30;16.70;99.90
33699;DHT22;20032;52.436;13.312;2023-07-20T04:13:56;16.60;99.90
33699;DHT22;20032;52.436;13.312;2023-07-20T04:16:21;16.70;99.90
33699;DHT22;20032;52.436;13.312;2023-07-20T04:18:47;16.70;99.90
33699;DHT22;20032;52.436;13.312;2023-07-20T04:21:12;16.70;99.90
33699;DHT22;20032;52.436;13.312;2023-07-20T04:23:38;16.60;99.90
33699;DHT22;20032;52.436;13.312;2023-07-20T04:26:03;16.70;99.90
33699;DHT22;20032;52.436;13.312;2023-07-20T04:28:29;16.70;99.90
33699;DHT22;20032;52.436;13.312;2023-07-20T04:31:09;16.70;99.90
33699;DHT22;20032;52.436;13.312;2023-07-20T04:33:35;16.60;99.90
33699;DHT22;20032;52.436;13.312;2023-07-20T04:36:01;16.60;99.90
33699;DHT22;20032;52.436;13.312;2023-07-20T04:38:26;16.60;99.90
33699;DHT22;20032;52.436;13.312;2023-07-20T04:40:52;16.60;99.90
33699;DHT22;20032;52.436;13.312;2023-07-20T04:43:18;16.60;99.90
33699;DHT22;20032;52.436;13.312;2023-07-20T04:45:43;16.60;99.90
33699;DHT22;20032;52.436;13.312;2023-07-20T04:48:11;16.60;99.90
33699;DHT22;20032;52.436;13.312;2023-07-20T04:50:37;16.50;99.90
33699;DHT22;20032;52.436;13.312;2023-07-20T04:53:03;16.60;99.90
33699;DHT22;20032;52.436;13.312;2023-07-20T04:55:28;16.50;99.90
33699;DHT22;20032;52.436;13.312;2023-07-20T04:57:54;16.50;99.90
33699;DHT22;20032;52.436;13.312;2023-07-20T05:00:19;16.50;99.90
33699;DHT22;20032;52.436;13.312;2023-07-20T05:02:46;16.60;99.90
33699;DHT22;20032;52.436;13.312;2023-07-20T05:05:14;16.60;99.90
33699;DHT22;20032;52.436;13.312;2023-07-20T05:07:40;16.60;99.90
33699;DHT22;20032;52.436;13.312;2023-07-20T05:10:06;16.70;99.90
33699;DHT22;20032;52.436;13.312;2023-07-20T05:12:31;16.60;99.90
33699;DHT22;20032;52.436;13.312;2023-07-20T05:14:57;16.60;99.90
33699;DHT22;20032;52.436;13.312;2023-07-20T05:17:23;16.60;99.90
33699;DHT22;20032;52.436;13.312;2023-07-20T05:19:48;16.80;99.90
33699;DHT22;20032;52.436;13.312;2023-07-20T05:22:14;16.80;99.90
33699;DHT22;20032;52.436;13.312;2023-07-20T05:24:40;16.90;99.90
33699;DHT22;20032;52.436;13.312;2023-07-20T05:27:05;16.90;99.90
33699;DHT22;20032;52.436;13.312;2023-07-20T05:29:31;16.90;99.90
33699;DHT22;20032;52.436;13.312;2023-07-20T05:31:57;16.90;99.90
33699;DHT22;20032;52.436;13.312;2023-07-20T05:34:22;16.90;99.90
33699;DHT22;20032;52.436;13.312;2023-07-20T05:36:48;16.90;99.90
33699;DHT22;20032;52.436;13.312;2023-07-20T05:39:13;16.90;99.90
33699;DHT22;20032;52.436;13.312;2023-07-20T05:41:39;16.90;99.90
33699;DHT22;20032;52.436;13.312;2023-07-20T05:44:04;16.90;99.90
33699;DHT22;20032;52.436;13.312;2023-07-20T05:46:29;17.00;99.90
33699;DHT22;20032;52.436;13.312;2023-07-20T05:48:55;17.10;99.90
33699;DHT22;20032;52.436;13.312;2023-07-20T05:51:20;17.00;99.90
33699;DHT22;20032;52.436;13.312;2023-07-20T05:53:46;17.00;99.90
33699;DHT22;20032;52.436;13.312;2023-07-20T05:56:13;17.00;99.90
33699;DHT22;20032;52.436;13.312;2023-07-20T05:58:39;16.90;99.90
33699;DHT22;20032;52.436;13.312;2023-07-20T06:01:05;17.00;99.90
33699;DHT22;20032;52.436;13.312;2023-07-20T06:03:32;17.00;99.90
33699;DHT22;20032;52.436;13.312;2023-07-20T06:06:00;17.00;99.90
33699;DHT22;20032;52.436;13.312;2023-07-20T06:08:27;17.10;99.90
33699;DHT22;20032;52.436;13.312;2023-07-20T06:10:52;17.10;99.90
33699;DHT22;20032;52.436;13.312;2023-07-20T06:13:18;17.00;99.90
33699;DHT22;20032;52.436;13.312;2023-07-20T06:15:43;17.10;99.90
33699;DHT22;20032;52.436;13.312;2023-07-20T06:18:09;17.10;99.90
33699;DHT22;20032;52.436;13.312;2023-07-20T06:20:34;17.10;99.90
33699;DHT22;20032;52.436;13.312;2023-07-20T06:23:00;17.10;99.90
33699;DHT22;20032;52.436;13.312;2023-07-20T06:25:25;17.20;99.90
33699;DHT22;20032;52.436;13.312;2023-07-20T06:27:51;17.30;99.90
33699;DHT22;20032;52.436;13.312;2023-07-20T06:30:17;17.40;99.90
33699;DHT22;20032;52.436;13.312;2023-07-20T06:32:43;17.40;99.90
33699;DHT22;20032;52.436;13.312;2023-07-20T06:35:08;17.40;99.90
33699;DHT22;20032;52.436;13.312;2023-07-20T06:37:35;17.40;99.90
33699;DHT22;20032;52.436;13.312;2023-07-20T06:40:01;17.50;99.90
33699;DHT22;20032;52.436;13.312;2023-07-20T06:42:27;17.40;99.90
33699;DHT22;20032;52.436;13.312;2023-07-20T06:44:53;17.30;99.90
33699;DHT22;20032;52.436;13.312;2023-07-20T06:47:18;17.30;99.90
33699;DHT22;20032;52.436;13.312;2023-07-20T06:49:44;17.20;99.90
33699;DHT22;20032;52.436;13.312;2023-07-20T06:52:09;17.20;99.90
33699;DHT22;20032;52.436;13.312;2023-07-20T06:54:35;17.30;99.90
33699;DHT22;20032;52.436;13.312;2023-07-20T06:57:00;17.30;99.90
33699;DHT22;20032;52.436;13.312;2023-07-20T06:59:25;17.40;99.90
33699;DHT22;20032;52.436;13.312;2023-07-20T07:01:51;17.50;99.90
33699;DHT22;20032;52.436;13.312;2023-07-20T07:04:16;17.70;99.90
33699;DHT22;20032;52.436;13.312;2023-07-20T07:06:42;17.80;99.90
33699;DHT22;20032;52.436;13.312;2023-07-20T07:09:08;17.80;99.90
33699;DHT22;20032;52.436;13.312;2023-07-20T07:11:34;17.60;99.90
33699;DHT22;20032;52.436;13.312;2023-07-20T07:13:59;17.60;99.90
33699;DHT22;20032;52.436;13.312;2023-07-20T07:16:25;17.70;99.90
33699;DHT22;20032;52.436;13.312;2023-07-20T07:18:51;17.90;99.90
33699;DHT22;20032;52.436;13.312;2023-07-20T07:21:16;18.10;99.90
33699;DHT22;20032;52.436;13.312;2023-07-20T07:23:43;18.20;99.90
33699;DHT22;20032;52.436;13.312;2023-07-20T07:26:09;18.30;99.90
33699;DHT22;20032;52.436;13.312;2023-07-20T07:28:35;18.40;99.90
33699;DHT22;20032;52.436;13.312;2023-07-20T07:31:00;18.40;99.90
33699;DHT22;20032;52.436;13.312;2023-07-20T07:33:26;18.50;99.90
33699;DHT22;20032;52.436;13.312;2023-07-20T07:35:51;18.50;99.90
33699;DHT22;20032;52.436;13.312;2023-07-20T07:38:19;18.50;99.90
33699;DHT22;20032;52.436;13.312;2023-07-20T07:40:44;18.40;99.90
33699;DHT22;20032;52.436;13.312;2023-07-20T07:43:10;18.40;99.90
33699;DHT22;20032;52.436;13.312;2023-07-20T07:45:35;18.30;99.90
33699;DHT22;20032;52.436;13.312;2023-07-20T07:48:03;18.30;99.90
33699;DHT22;20032;52.436;13.312;2023-07-20T07:50:29;18.50;99.90
33699;DHT22;20032;52.436;13.312;2023-07-20T07:52:55;18.90;99.90
33699;DHT22;20032;52.436;13.312;2023-07-20T07:55:20;19.10;99.90
33699;DHT22;20032;52.436;13.312;2023-07-20T07:57:46;19.20;99.90
33699;DHT22;20032;52.436;13.312;2023-07-20T08:00:13;19.10;99.90
33699;DHT22;20032;52.436;13.312;2023-07-20T08:02:41;19.10;99.90
33699;DHT22;20032;52.436;13.312;2023-07-20T08:05:07;19.00;99.90
33699;DHT22;20032;52.436;13.312;2023-07-20T08:07:32;19.10;99.90
33699;DHT22;20032;52.436;13.312;2023-07-20T08:09:58;19.10;99.90
33699;DHT22;20032;52.436;13.312;2023-07-20T08:12:24;19.10;99.90
33699;DHT22;20032;52.436;13.312;2023-07-20T08:14:50;19.00;99.90
33699;DHT22;20032;52.436;13.312;2023-07-20T08:17:16;18.80;99.90
33699;DHT22;20032;52.436;13.312;2023-07-20T08:19:42;18.70;99.90
33699;DHT22;20032;52.436;13.312;2023-07-20T08:22:07;18.70;99.90
33699;DHT22;20032;52.436;13.312;2023-07-20T08:24:33;18.70;99.90
33699;DHT22;20032;52.436;13.312;2023-07-20T08:26:59;18.80;99.90
33699;DHT22;20032;52.436;13.312;2023-07-20T08:29:24;18.80;99.90
33699;DHT22;20032;52.436;13.312;2023-07-20T08:31:50;19.00;99.90
33699;DHT22;20032;52.436;13.312;2023-07-20T08:34:15;19.10;99.90
33699;DHT22;20032;52.436;13.312;2023-07-20T08:36:41;19.20;99.90
33699;DHT22;20032;52.436;13.312;2023-07-20T08:39:06;19.40;99.90
33699;DHT22;20032;52.436;13.312;2023-07-20T08:41:34;19.50;99.90
33699;DHT22;20032;52.436;13.312;2023-07-20T08:44:01;19.80;99.90
33699;DHT22;20032;52.436;13.312;2023-07-20T08:46:27;19.90;99.90
33699;DHT22;20032;52.436;13.312;2023-07-20T08:48:55;19.80;99.90
33699;DHT22;20032;52.436;13.312;2023-07-20T08:51:21;19.80;99.90
33699;DHT22;20032;52.436;13.312;2023-07-20T08:53:48;20.10;99.90
33699;DHT22;20032;52.436;13.312;2023-07-20T08:56:15;20.10;99.90
33699;DHT22;20032;52.436;13.312;2023-07-20T08:58:43;20.10;99.90
33699;DHT22;20032;52.436;13.312;2023-07-20T09:01:10;19.70;99.90
33699;DHT22;20032;52.436;13.312;2023-07-20T09:03:36;19.60;99.90
33699;DHT22;20032;52.436;13.312;2023-07-20T09:06:05;19.80;99.90
33699;DHT22;20032;52.436;13.312;2023-07-20T09:08:30;20.10;99.90
33699;DHT22;20032;52.436;13.312;2023-07-20T09:10:56;20.20;99.90
33699;DHT22;20032;52.436;13.312;2023-07-20T09:13:22;20.40;99.90
33699;DHT22;20032;52.436;13.312;2023-07-20T09:15:52;20.20;99.90
33699;DHT22;20032;52.436;13.312;2023-07-20T09:18:27;20.20;99.90
33699;DHT22;20032;52.436;13.312;2023-07-20T09:20:57;20.50;99.90
33699;DHT22;20032;52.436;13.312;2023-07-20T09:23:33;20.60;99.90
33699;DHT22;20032;52.436;13.312;2023-07-20T09:25:59;20.60;99.90
33699;DHT22;20032;52.436;13.312;2023-07-20T09:28:25;20.50;99.90
33699;DHT22;20032;52.436;13.312;2023-07-20T09:30:51;20.60;99.90
33699;DHT22;20032;52.436;13.312;2023-07-20T09:33:24;20.60;99.90
33699;DHT22;20032;52.436;13.312;2023-07-20T09:35:50;20.50;99.90
33699;DHT22;20032;52.436;13.312;2023-07-20T09:38:15;20.40;99.90
33699;DHT22;20032;52.436;13.312;2023-07-20T09:40:42;20.30;99.90
33699;DHT22;20032;52.436;13.312;2023-07-20T09:43:09;20.40;99.90
33699;DHT22;20032;52.436;13.312;2023-07-20T09:45:40;20.50;99.90
33699;DHT22;20032;52.436;13.312;2023-07-20T09:48:07;20.60;99.90
33699;DHT22;20032;52.436;13.312;2023-07-20T09:50:33;20.60;99.90
33699;DHT22;20032;52.436;13.312;2023-07-20T09:53:00;20.70;99.90
33699;DHT22;20032;52.436;13.312;2023-07-20T09:55:27;20.70;99.90
33699;DHT22;20032;52.436;13.312;2023-07-20T09:57:54;20.80;99.90
33699;DHT22;20032;52.436;13.312;2023-07-20T10:00:21;20.60;99.90
33699;DHT22;20032;52.436;13.312;2023-07-20T10:02:46;20.50;99.90
33699;DHT22;20032;52.436;13.312;2023-07-20T10:05:14;20.30;99.90
33699;DHT22;20032;52.436;13.312;2023-07-20T10:07:44;20.20;99.90
33699;DHT22;20032;52.436;13.312;2023-07-20T10:10:14;20.10;99.90
33699;DHT22;20032;52.436;13.312;2023-07-20T10:12:40;20.00;99.90
33699;DHT22;20032;52.436;13.312;2023-07-20T10:15:12;19.90;99.90
33699;DHT22;20032;52.436;13.312;2023-07-20T10:17:46;19.80;99.90
33699;DHT22;20032;52.436;13.312;2023-07-20T10:20:17;19.90;99.90
33699;DHT22;20032;52.436;13.312;2023-07-20T10:22:45;19.90;99.90
33699;DHT22;20032;52.436;13.312;2023-07-20T10:25:12;20.00;99.90
33699;DHT22;20032;52.436;13.312;2023-07-20T10:27:39;20.40;99.90
33699;DHT22;20032;52.436;13.312;2023-07-20T10:30:06;20.90;99.90
33699;DHT22;20032;52.436;13.312;2023-07-20T10:32:32;21.20;99.90
33699;DHT22;20032;52.436;13.312;2023-07-20T10:34:58;21.50;99.90
33699;DHT22;20032;52.436;13.312;2023-07-20T10:38:14;21.50;99.90
33699;DHT22;20032;52.436;13.312;2023-07-20T10:40:31;21.40;99.90
33699;DHT22;20032;52.436;13.312;2023-07-20T10:43:00;21.10;99.90
33699;DHT22;20032;52.436;13.312;2023-07-20T10:45:34;21.00;99.90
33699;DHT22;20032;52.436;13.312;2023-07-20T10:48:03;20.80;99.90
33699;DHT22;20032;52.436;13.312;2023-07-20T10:50:30;20.60;99.90
33699;DHT22;20032;52.436;13.312;2023-07-20T10:53:16;20.50;99.90
33699;DHT22;20032;52.436;13.312;2023-07-20T10:55:42;20.50;99.90
33699;DHT22;20032;52.436;13.312;2023-07-20T10:58:10;20.50;99.90
33699;DHT22;20032;52.436;13.312;2023-07-20T11:00:36;20.40;99.90
33699;DHT22;20032;52.436;13.312;2023-07-20T11:03:02;20.40;99.90
33699;DHT22;20032;52.436;13.312;2023-07-20T11:05:43;20.30;99.90
33699;DHT22;20032;52.436;13.312;2023-07-20T11:08:10;20.30;99.90
33699;DHT22;20032;52.436;13.312;2023-07-20T11:10:36;20.30;99.90
33699;DHT22;20032;52.436;13.312;2023-07-20T11:13:19;20.30;99.90
33699;DHT22;20032;52.436;13.312;2023-07-20T11:15:46;20.20;99.90
33699;DHT22;20032;52.436;13.312;2023-07-20T11:18:13;20.10;99.90
33699;DHT22;20032;52.436;13.312;2023-07-20T11:20:39;20.10;99.90
33699;DHT22;20032;52.436;13.312;2023-07-20T11:23:05;20.10;99.90
33699;DHT22;20032;52.436;13.312;2023-07-20T11:25:46;19.90;99.90
33699;DHT22;20032;52.436;13.312;2023-07-20T11:28:12;19.80;99.90
33699;DHT22;20032;52.436;13.312;2023-07-20T11:30:38;19.70;99.90
33699;DHT22;20032;52.436;13.312;2023-07-20T11:33:04;19.70;99.90
33699;DHT22;20032;52.436;13.312;2023-07-20T11:35:30;19.70;99.90
33699;DHT22;20032;52.436;13.312;2023-07-20T11:37:56;19.80;99.90
33699;DHT22;20032;52.436;13.312;2023-07-20T11:40:22;19.90;99.90
33699;DHT22;20032;52.436;13.312;2023-07-20T11:42:48;20.00;99.90
33699;DHT22;20032;52.436;13.312;2023-07-20T11:45:16;20.10;99.90
33699;DHT22;20032;52.436;13.312;2023-07-20T11:47:43;20.20;99.90
33699;DHT22;20032;52.436;13.312;2023-07-20T11:50:09;20.10;99.90
33699;DHT22;20032;52.436;13.312;2023-07-20T11:52:35;20.10;99.90
33699;DHT22;20032;52.436;13.312;2023-07-20T11:55:01;20.80;99.90
33699;DHT22;20032;52.436;13.312;2023-07-20T11:57:26;21.60;99.90
33699;DHT22;20032;52.436;13.312;2023-07-20T11:59:55;21.80;99.90
33699;DHT22;20032;52.436;13.312;2023-07-20T12:02:27;22.00;99.90
33699;DHT22;20032;52.436;13.312;2023-07-20T12:04:54;22.00;99.90
33699;DHT22;20032;52.436;13.312;2023-07-20T12:07:19;22.10;99.90
33699;DHT22;20032;52.436;13.312;2023-07-20T12:10:06;22.10;99.90
33699;DHT22;20032;52.436;13.312;2023-07-20T12:12:34;21.90;99.90
33699;DHT22;20032;52.436;13.312;2023-07-20T12:15:20;21.90;99.90
33699;DHT22;20032;52.436;13.312;2023-07-20T12:17:49;21.90;99.90
33699;DHT22;20032;52.436;13.312;2023-07-20T12:22:52;21.40;99.90
33699;DHT22;20032;52.436;13.312;2023-07-20T12:25:17;21.20;99.90
33699;DHT22;20032;52.436;13.312;2023-07-20T12:27:45;20.90;99.90
33699;DHT22;20032;52.436;13.312;2023-07-20T12:30:11;20.90;99.90
33699;DHT22;20032;52.436;13.312;2023-07-20T12:32:38;21.10;99.90
33699;DHT22;20032;52.436;13.312;2023-07-20T12:35:04;21.20;99.90
33699;DHT22;20032;52.436;13.312;2023-07-20T12:37:30;21.20;99.90
33699;DHT22;20032;52.436;13.312;2023-07-20T12:39:55;21.30;99.90
33699;DHT22;20032;52.436;13.312;2023-07-20T12:42:21;21.50;99.90
33699;DHT22;20032;52.436;13.312;2023-07-20T12:44:49;21.50;99.90
33699;DHT22;20032;52.436;13.312;2023-07-20T12:47:15;21.70;99.90
33699;DHT22;20032;52.436;13.312;2023-07-20T12:49:41;22.10;99.90
33699;DHT22;20032;52.436;13.312;2023-07-20T12:52:10;23.20;99.90
33699;DHT22;20032;52.436;13.312;2023-07-20T12:54:36;24.10;99.90
33699;DHT22;20032;52.436;13.312;2023-07-20T12:57:01;25.00;98.20
33699;DHT22;20032;52.436;13.312;2023-07-20T12:59:28;25.80;97.70
33699;DHT22;20032;52.436;13.312;2023-07-20T13:01:54;26.30;95.00
33699;DHT22;20032;52.436;13.312;2023-07-20T13:04:19;26.10;93.90
33699;DHT22;20032;52.436;13.312;2023-07-20T13:06:44;26.00;93.60
33699;DHT22;20032;52.436;13.312;2023-07-20T13:09:10;25.80;92.70
33699;DHT22;20032;52.436;13.312;2023-07-20T13:11:35;26.10;92.20
33699;DHT22;20032;52.436;13.312;2023-07-20T13:14:01;26.80;91.10
33699;DHT22;20032;52.436;13.312;2023-07-20T13:16:27;27.40;90.30
33699;DHT22;20032;52.436;13.312;2023-07-20T13:18:52;27.90;89.50
33699;DHT22;20032;52.436;13.312;2023-07-20T13:21:18;28.60;86.40
33699;DHT22;20032;52.436;13.312;2023-07-20T13:23:47;28.90;84.10
33699;DHT22;20032;52.436;13.312;2023-07-20T13:26:13;28.80;81.90
33699;DHT22;20032;52.436;13.312;2023-07-20T13:28:39;29.00;83.30
33699;DHT22;20032;52.436;13.312;2023-07-20T13:31:04;29.30;79.60
33699;DHT22;20032;52.436;13.312;2023-07-20T13:33:30;29.60;80.60
33699;DHT22;20032;52.436;13.312;2023-07-20T13:35:55;29.80;78.20
33699;DHT22;20032;52.436;13.312;2023-07-20T13:38:21;29.70;78.80
33699;DHT22;20032;52.436;13.312;2023-07-20T13:40:47;29.40;78.20
33699;DHT22;20032;52.436;13.312;2023-07-20T13:43:13;29.10;78.40
33699;DHT22;20032;52.436;13.312;2023-07-20T13:45:38;28.70;79.50
33699;DHT22;20032;52.436;13.312;2023-07-20T13:48:04;28.20;78.90
33699;DHT22;20032;52.436;13.312;2023-07-20T13:50:29;28.60;79.90
33699;DHT22;20032;52.436;13.312;2023-07-20T13:52:55;29.30;77.40
33699;DHT22;20032;52.436;13.312;2023-07-20T13:55:20;29.60;76.40
33699;DHT22;20032;52.436;13.312;2023-07-20T13:57:46;28.80;76.00
33699;DHT22;20032;52.436;13.312;2023-07-20T14:00:12;27.40;79.00
33699;DHT22;20032;52.436;13.312;2023-07-20T14:02:38;26.40;81.80
33699;DHT22;20032;52.436;13.312;2023-07-20T14:05:04;25.50;83.80
33699;DHT22;20032;52.436;13.312;2023-07-20T14:07:30;25.10;84.70
33699;DHT22;20032;52.436;13.312;2023-07-20T14:09:55;26.20;82.10
33699;DHT22;20032;52.436;13.312;2023-07-20T14:12:21;27.40;80.70
33699;DHT22;20032;52.436;13.312;2023-07-20T14:14:47;29.00;78.40
33699;DHT22;20032;52.436;13.312;2023-07-20T14:17:12;29.00;76.40
33699;DHT22;20032;52.436;13.312;2023-07-20T14:19:38;29.00;75.20
33699;DHT22;20032;52.436;13.312;2023-07-20T14:22:04;28.60;75.20
33699;DHT22;20032;52.436;13.312;2023-07-20T14:24:29;28.20;77.00
33699;DHT22;20032;52.436;13.312;2023-07-20T14:26:55;29.10;74.20
33699;DHT22;20032;52.436;13.312;2023-07-20T14:29:21;29.50;72.70
33699;DHT22;20032;52.436;13.312;2023-07-20T14:31:46;29.70;72.40
33699;DHT22;20032;52.436;13.312;2023-07-20T14:34:17;30.60;69.70
33699;DHT22;20032;52.436;13.312;2023-07-20T14:36:44;30.10;70.30
33699;DHT22;20032;52.436;13.312;2023-07-20T14:39:09;30.30;69.80
33699;DHT22;20032;52.436;13.312;2023-07-20T14:41:35;30.90;68.50
33699;DHT22;20032;52.436;13.312;2023-07-20T14:44:00;30.80;69.50
33699;DHT22;20032;52.436;13.312;2023-07-20T14:46:26;31.40;69.50
33699;DHT22;20032;52.436;13.312;2023-07-20T14:48:51;31.90;65.40
33699;DHT22;20032;52.436;13.312;2023-07-20T14:51:17;31.70;65.00
33699;DHT22;20032;52.436;13.312;2023-07-20T14:53:42;31.50;64.30
33699;DHT22;20032;52.436;13.312;2023-07-20T14:56:08;31.70;63.00
33699;DHT22;20032;52.436;13.312;2023-07-20T14:58:34;31.60;64.90
33699;DHT22;20032;52.436;13.312;2023-07-20T15:01:00;31.70;63.40
33699;DHT22;20032;52.436;13.312;2023-07-20T15:03:25;31.60;62.00
33699;DHT22;20032;52.436;13.312;2023-07-20T15:05:51;30.00;64.20
33699;DHT22;20032;52.436;13.312;2023-07-20T15:08:17;28.70;66.00
33699;DHT22;20032;52.436;13.312;2023-07-20T15:10:44;27.60;68.00
33699;DHT22;20032;52.436;13.312;2023-07-20T15:13:11;27.40;68.20
33699;DHT22;20032;52.436;13.312;2023-07-20T15:15:36;27.30;69.10
33699;DHT22;20032;52.436;13.312;2023-07-20T15:18:02;26.80;70.30
33699;DHT22;20032;52.436;13.312;2023-07-20T15:20:27;26.30;71.70